AEA7015 LEAS-LEMD
Flight info
| Callsign | AEA7015 |
|---|---|
| Flight time | N/A |
| Altitude | 28000 |
| Route | XONDA M30 ZMR |
| Aircraft | B738/M-V/N |
Departure
| Time | 2026-04-23 15:47 |
|---|---|
| Airport | Asturias Airport (LEAS) |
Arrival
| Time | N/A |
|---|---|
| Airport | Adolfo Suárez Madrid–Barajas Airport (LEMD) |
| Time | Latitude | Longitude | Altitude | Speed | Heading |
|---|---|---|---|---|---|
| 2026-04-23 15:43 | 43.55995 | -6.03172 | 426 ft | 0 kts | 271° |
| 2026-04-23 15:44 | 43.55997 | -6.03181 | 426 ft | 3 kts | 292° |
| 2026-04-23 15:44 | 43.56037 | -6.03225 | 426 ft | 11 kts | 335° |
| 2026-04-23 15:45 | 43.56115 | -6.03195 | 425 ft | 14 kts | 77° |
| 2026-04-23 15:45 | 43.56095 | -6.03038 | 424 ft | 19 kts | 107° |
| 2026-04-23 15:45 | 43.56045 | -6.02821 | 422 ft | 28 kts | 111° |
| 2026-04-23 15:45 | 43.55968 | -6.02519 | 416 ft | 37 kts | 111° |
| 2026-04-23 15:46 | 43.55994 | -6.02241 | 402 ft | 23 kts | 50° |
| 2026-04-23 15:46 | 43.56063 | -6.02228 | 401 ft | 2 kts | 285° |
| 2026-04-23 15:46 | 43.56063 | -6.02229 | 401 ft | 0 kts | 285° |
| 2026-04-23 15:46 | 43.56124 | -6.02463 | 413 ft | 70 kts | 290° |
| 2026-04-23 15:47 | 43.56360 | -6.03498 | 425 ft | 157 kts | 289° |
| 2026-04-23 15:47 | 43.56707 | -6.04953 | 1387 ft | 164 kts | 291° |
| 2026-04-23 15:47 | 43.57074 | -6.06399 | 2425 ft | 168 kts | 290° |
| 2026-04-23 15:47 | 43.57466 | -6.08017 | 3269 ft | 195 kts | 290° |
| 2026-04-23 15:48 | 43.57925 | -6.09879 | 4185 ft | 222 kts | 289° |
| 2026-04-23 15:48 | 43.58445 | -6.12007 | 5069 ft | 252 kts | 289° |
| 2026-04-23 15:48 | 43.59024 | -6.14383 | 5937 ft | 273 kts | 289° |
| 2026-04-23 15:48 | 43.59546 | -6.16919 | 6706 ft | 279 kts | 274° |
| 2026-04-23 15:49 | 43.59163 | -6.19488 | 7482 ft | 280 kts | 244° |
| 2026-04-23 15:49 | 43.58161 | -6.21877 | 8283 ft | 302 kts | 223° |
| 2026-04-23 15:49 | 43.56348 | -6.23337 | 9156 ft | 319 kts | 195° |
| 2026-04-23 15:49 | 43.54104 | -6.23628 | 10155 ft | 332 kts | 176° |
| 2026-04-23 15:50 | 43.51845 | -6.23119 | 11089 ft | 337 kts | 167° |
| 2026-04-23 15:50 | 43.49602 | -6.22137 | 11929 ft | 342 kts | 160° |
| 2026-04-23 15:50 | 43.47446 | -6.20713 | 12732 ft | 347 kts | 152° |
| 2026-04-23 15:50 | 43.45431 | -6.18854 | 13534 ft | 353 kts | 144° |
| 2026-04-23 15:51 | 43.43628 | -6.16603 | 14325 ft | 359 kts | 136° |
| 2026-04-23 15:51 | 43.42038 | -6.13933 | 15123 ft | 366 kts | 128° |
| 2026-04-23 15:51 | 43.40733 | -6.10901 | 15920 ft | 373 kts | 120° |
| 2026-04-23 15:51 | 43.39762 | -6.07565 | 16712 ft | 381 kts | 111° |
| 2026-04-23 15:52 | 43.39176 | -6.04026 | 17491 ft | 390 kts | 102° |
| 2026-04-23 15:52 | 43.38620 | -6.00370 | 18220 ft | 389 kts | 116° |
| 2026-04-23 15:52 | 43.37111 | -5.97401 | 18956 ft | 384 kts | 140° |
| 2026-04-23 15:52 | 43.34849 | -5.95531 | 19691 ft | 381 kts | 163° |
| 2026-04-23 15:53 | 43.32265 | -5.95106 | 20420 ft | 381 kts | 185° |
| 2026-04-23 15:53 | 43.29655 | -5.95801 | 21196 ft | 386 kts | 186° |
| 2026-04-23 15:53 | 43.27025 | -5.95362 | 21907 ft | 392 kts | 167° |
| 2026-04-23 15:53 | 43.24342 | -5.94687 | 22750 ft | 394 kts | 173° |
| 2026-04-23 15:54 | 43.21644 | -5.94162 | 23570 ft | 398 kts | 174° |
| 2026-04-23 15:54 | 43.18887 | -5.93636 | 24383 ft | 401 kts | 174° |
| 2026-04-23 15:54 | 43.16159 | -5.93115 | 25171 ft | 403 kts | 174° |
| 2026-04-23 15:54 | 43.13366 | -5.92583 | 25940 ft | 406 kts | 174° |
| 2026-04-23 15:55 | 43.10599 | -5.92056 | 26676 ft | 408 kts | 174° |
| 2026-04-23 15:55 | 43.07808 | -5.91525 | 27413 ft | 410 kts | 174° |
| 2026-04-23 15:55 | 43.04983 | -5.90999 | 27986 ft | 415 kts | 174° |
| 2026-04-23 15:55 | 43.02068 | -5.90468 | 28042 ft | 432 kts | 174° |
| 2026-04-23 15:56 | 42.99054 | -5.89921 | 28058 ft | 432 kts | 174° |
| 2026-04-23 15:56 | 42.93190 | -5.88853 | 28013 ft | 427 kts | 174° |
| 2026-04-23 15:57 | 42.87306 | -5.87785 | 28024 ft | 426 kts | 174° |
| 2026-04-23 15:57 | 42.81445 | -5.86724 | 28023 ft | 426 kts | 174° |
| 2026-04-23 15:58 | 42.75589 | -5.85666 | 28023 ft | 426 kts | 174° |
| 2026-04-23 15:58 | 42.69734 | -5.84610 | 28022 ft | 426 kts | 174° |
| 2026-04-23 15:59 | 42.63860 | -5.83553 | 28022 ft | 426 kts | 174° |
| 2026-04-23 15:59 | 42.58032 | -5.82505 | 28021 ft | 426 kts | 174° |
| 2026-04-23 16:00 | 42.52185 | -5.81457 | 28021 ft | 426 kts | 174° |
| 2026-04-23 16:00 | 42.46314 | -5.80406 | 28020 ft | 426 kts | 174° |
| 2026-04-23 16:01 | 42.40448 | -5.79358 | 28020 ft | 426 kts | 174° |
| 2026-04-23 16:01 | 42.34614 | -5.78318 | 28019 ft | 426 kts | 174° |
| 2026-04-23 16:02 | 42.28742 | -5.77273 | 28018 ft | 426 kts | 174° |
| 2026-04-23 16:02 | 42.22902 | -5.76235 | 28017 ft | 426 kts | 174° |
| 2026-04-23 16:02 | 42.20009 | -5.75362 | 27981 ft | 427 kts | 165° |
| 2026-04-23 16:03 | 42.17123 | -5.74786 | 28030 ft | 424 kts | 176° |
| 2026-04-23 16:03 | 42.11239 | -5.73893 | 28022 ft | 426 kts | 174° |
| 2026-04-23 16:04 | 42.05380 | -5.72898 | 28015 ft | 426 kts | 174° |
| 2026-04-23 16:04 | 41.99540 | -5.71896 | 28015 ft | 426 kts | 174° |
| 2026-04-23 16:05 | 41.94644 | -5.71056 | 28015 ft | 426 kts | 174° |
| 2026-04-23 16:05 | 41.87800 | -5.69884 | 28024 ft | 426 kts | 174° |
| 2026-04-23 16:06 | 41.81942 | -5.68884 | 28024 ft | 426 kts | 174° |
| 2026-04-23 16:06 | 41.76109 | -5.67889 | 28023 ft | 426 kts | 174° |
| 2026-04-23 16:07 | 41.70244 | -5.66891 | 28016 ft | 426 kts | 174° |
| 2026-04-23 16:07 | 41.64379 | -5.65894 | 28005 ft | 427 kts | 174° |
| 2026-04-23 16:07 | 41.61427 | -5.65393 | 28000 ft | 427 kts | 174° |
| 2026-04-23 16:08 | 41.58479 | -5.64877 | 27989 ft | 427 kts | 172° |
| 2026-04-23 16:08 | 41.55718 | -5.63444 | 27962 ft | 434 kts | 151° |
| 2026-04-23 16:08 | 41.53510 | -5.60762 | 27975 ft | 432 kts | 133° |
| 2026-04-23 16:08 | 41.52067 | -5.57208 | 27974 ft | 441 kts | 115° |
| 2026-04-23 16:09 | 41.51182 | -5.53268 | 28008 ft | 448 kts | 110° |
| 2026-04-23 16:09 | 41.50429 | -5.49253 | 28000 ft | 449 kts | 108° |
| 2026-04-23 16:09 | 41.49704 | -5.45226 | 28000 ft | 448 kts | 108° |
| 2026-04-23 16:09 | 41.48977 | -5.41153 | 27999 ft | 447 kts | 108° |
| 2026-04-23 16:10 | 41.48261 | -5.37150 | 28011 ft | 449 kts | 108° |
| 2026-04-23 16:10 | 41.47366 | -5.32147 | 28012 ft | 449 kts | 109° |
| 2026-04-23 16:11 | 41.44029 | -5.13615 | 28019 ft | 449 kts | 109° |
| 2026-04-23 16:12 | 41.42596 | -5.05703 | 27985 ft | 432 kts | 109° |
| 2026-04-23 16:12 | 41.41885 | -5.01809 | 27564 ft | 433 kts | 109° |